createdAt,value
2023-12-09T00:01:28.396Z,0.10
2023-12-09T00:03:55.820Z,0.10
2023-12-09T00:06:24.002Z,0.10
2023-12-09T00:08:52.205Z,0.20
2023-12-09T00:11:19.953Z,0.20
2023-12-09T00:13:47.502Z,0.20
2023-12-09T00:16:15.441Z,0.20
2023-12-09T00:18:43.318Z,0.20
2023-12-09T00:21:11.626Z,0.20
2023-12-09T00:23:47.286Z,0.20
2023-12-09T00:26:16.682Z,0.30
2023-12-09T00:28:44.506Z,0.10
2023-12-09T00:31:13.103Z,0.00
2023-12-09T00:33:40.685Z,0.10
2023-12-09T00:36:09.134Z,0.10
2023-12-09T00:38:36.654Z,0.20
2023-12-09T00:41:05.481Z,0.20
2023-12-09T00:43:33.801Z,0.20
2023-12-09T00:46:01.751Z,0.20
2023-12-09T00:48:29.188Z,0.20
2023-12-09T00:50:57.014Z,0.10
2023-12-09T00:53:24.585Z,0.10
2023-12-09T00:55:52.346Z,0.10
2023-12-09T00:58:19.731Z,0.00
2023-12-09T01:00:48.461Z,0.10
2023-12-09T01:03:16.304Z,0.10
2023-12-09T01:05:44.048Z,0.10
2023-12-09T01:08:11.728Z,0.10
2023-12-09T01:10:39.481Z,0.10
2023-12-09T01:13:07.606Z,0.00
2023-12-09T01:15:35.379Z,0.10
2023-12-09T01:18:03.422Z,0.10
2023-12-09T01:20:31.127Z,0.20
2023-12-09T01:22:58.649Z,0.10
2023-12-09T01:25:26.449Z,0.20
2023-12-09T01:27:54.068Z,0.30
2023-12-09T01:30:21.708Z,0.20
2023-12-09T01:32:49.095Z,0.30
2023-12-09T01:35:16.959Z,0.20
2023-12-09T01:37:44.347Z,0.20
2023-12-09T01:40:15.994Z,0.30
2023-12-09T01:42:44.172Z,0.20
2023-12-09T01:45:12.342Z,0.20
2023-12-09T01:47:43.318Z,0.20
2023-12-09T01:50:12.231Z,0.20
2023-12-09T01:52:40.822Z,0.10
2023-12-09T01:55:11.459Z,0.20
2023-12-09T01:57:39.330Z,0.30
2023-12-09T02:00:09.610Z,0.40
2023-12-09T02:02:37.364Z,0.20
2023-12-09T02:05:07.086Z,0.00
2023-12-09T02:07:35.249Z,0.00
2023-12-09T02:10:03.317Z,0.10
2023-12-09T02:12:41.807Z,0.10
2023-12-09T02:15:32.261Z,0.20
2023-12-09T02:18:05.051Z,0.10
2023-12-09T02:20:33.777Z,0.10
2023-12-09T02:23:12.404Z,0.10
2023-12-09T02:25:41.289Z,0.10
2023-12-09T02:28:23.039Z,0.20
2023-12-09T02:31:13.092Z,0.20
2023-12-09T02:33:44.845Z,0.30
2023-12-09T02:36:18.693Z,0.30
2023-12-09T02:38:47.789Z,0.10
2023-12-09T02:41:17.199Z,0.20
2023-12-09T02:43:47.666Z,0.20
2023-12-09T02:46:16.028Z,0.10
2023-12-09T02:48:43.743Z,0.20
2023-12-09T02:51:12.035Z,0.20
2023-12-09T02:53:39.616Z,0.30
2023-12-09T02:56:07.793Z,0.30
2023-12-09T02:58:35.237Z,0.30
2023-12-09T03:01:03.020Z,0.30
2023-12-09T03:03:30.658Z,0.30
2023-12-09T03:05:58.476Z,0.30
2023-12-09T03:08:25.983Z,0.40
2023-12-09T03:10:53.651Z,0.30
2023-12-09T03:13:21.379Z,0.30
2023-12-09T03:15:49.324Z,0.40
2023-12-09T03:18:17.044Z,0.40
2023-12-09T03:20:45.389Z,0.30
2023-12-09T03:23:12.747Z,0.40
2023-12-09T03:25:40.395Z,0.40
2023-12-09T03:28:07.873Z,0.40
2023-12-09T03:30:35.745Z,0.40
2023-12-09T03:33:03.463Z,0.50
2023-12-09T03:35:31.345Z,0.50
2023-12-09T03:37:58.933Z,0.50
2023-12-09T03:40:27.153Z,0.50
2023-12-09T03:42:54.608Z,0.60
2023-12-09T03:45:22.715Z,0.60
2023-12-09T03:47:50.504Z,0.80
2023-12-09T03:50:18.435Z,0.80
2023-12-09T03:52:45.911Z,0.70
2023-12-09T03:55:16.443Z,0.60
2023-12-09T03:57:44.516Z,0.70
2023-12-09T04:00:12.830Z,0.70
2023-12-09T04:02:40.491Z,0.80
2023-12-09T04:05:08.642Z,0.70
2023-12-09T04:07:36.248Z,0.70
2023-12-09T04:10:04.707Z,0.80
2023-12-09T04:12:32.568Z,0.80
2023-12-09T04:15:00.300Z,0.90
2023-12-09T04:17:28.008Z,0.90
2023-12-09T04:19:55.747Z,0.90
2023-12-09T04:22:24.341Z,0.90
2023-12-09T04:24:52.182Z,0.90
2023-12-09T04:27:22.242Z,0.90
2023-12-09T04:29:50.510Z,1.00
2023-12-09T04:32:17.919Z,1.00
2023-12-09T04:34:45.561Z,0.90
2023-12-09T04:37:13.053Z,0.90
2023-12-09T04:39:40.845Z,0.90
2023-12-09T04:42:08.521Z,0.90
2023-12-09T04:44:36.434Z,0.80
2023-12-09T04:47:07.711Z,0.80
2023-12-09T04:49:36.055Z,0.80
2023-12-09T04:52:05.266Z,0.80
2023-12-09T04:54:33.387Z,0.80
2023-12-09T04:57:00.951Z,0.80
2023-12-09T04:59:29.095Z,0.80
2023-12-09T05:01:56.698Z,0.80
2023-12-09T05:04:24.713Z,0.80
2023-12-09T05:06:52.364Z,0.70
2023-12-09T05:09:20.331Z,0.70
2023-12-09T05:11:47.807Z,0.80
2023-12-09T05:14:16.095Z,0.90
2023-12-09T05:16:43.527Z,0.90
2023-12-09T05:19:11.517Z,0.90
2023-12-09T05:21:39.074Z,1.00
2023-12-09T05:24:07.039Z,1.00
2023-12-09T05:26:34.949Z,1.00
2023-12-09T05:29:04.614Z,0.90
2023-12-09T05:31:32.251Z,0.90
2023-12-09T05:34:00.466Z,1.00
2023-12-09T05:36:28.246Z,1.10
2023-12-09T05:38:56.570Z,1.10
2023-12-09T05:41:23.969Z,1.10
2023-12-09T05:43:51.870Z,1.00
2023-12-09T05:46:22.883Z,1.10
2023-12-09T05:48:51.194Z,1.00
2023-12-09T05:51:18.955Z,1.00
2023-12-09T05:53:46.782Z,1.00
2023-12-09T05:56:14.205Z,1.10
2023-12-09T05:58:42.053Z,1.10
2023-12-09T06:01:10.225Z,1.10
2023-12-09T06:03:38.579Z,1.20
2023-12-09T06:06:06.826Z,1.20
2023-12-09T06:08:35.001Z,1.20
2023-12-09T06:11:02.627Z,1.20
2023-12-09T06:13:32.012Z,1.10
2023-12-09T06:15:59.487Z,1.20
2023-12-09T06:18:27.521Z,1.20
2023-12-09T06:20:55.351Z,1.10
2023-12-09T06:23:23.390Z,1.20
2023-12-09T06:25:51.536Z,1.20
2023-12-09T06:28:19.438Z,1.30
2023-12-09T06:30:47.235Z,1.30
2023-12-09T06:33:15.135Z,1.30
2023-12-09T06:35:42.889Z,1.30
2023-12-09T06:38:11.334Z,1.30
2023-12-09T06:40:38.809Z,1.40
2023-12-09T06:43:06.574Z,1.40
2023-12-09T06:45:34.094Z,1.40
2023-12-09T06:48:02.074Z,1.40
2023-12-09T06:50:29.721Z,1.40
2023-12-09T06:52:57.356Z,1.40
2023-12-09T06:55:24.830Z,1.50
2023-12-09T06:57:52.443Z,1.50
2023-12-09T07:00:20.158Z,1.50
2023-12-09T07:02:56.696Z,1.50
2023-12-09T07:05:27.698Z,1.60
2023-12-09T07:07:55.852Z,1.60
2023-12-09T07:10:23.335Z,1.60
2023-12-09T07:12:51.232Z,1.60
2023-12-09T07:15:18.755Z,1.70
2023-12-09T07:17:46.806Z,1.70
2023-12-09T07:20:15.072Z,1.70
2023-12-09T07:22:43.243Z,1.80
2023-12-09T07:25:10.666Z,1.80
2023-12-09T07:27:38.597Z,1.80
2023-12-09T07:30:06.896Z,1.90
2023-12-09T07:32:34.801Z,1.90
2023-12-09T07:35:02.578Z,2.00
2023-12-09T07:37:30.966Z,2.00
2023-12-09T07:39:58.670Z,2.00
2023-12-09T07:42:27.242Z,2.00
2023-12-09T07:44:54.931Z,2.00
2023-12-09T07:47:23.029Z,2.00
2023-12-09T07:49:50.793Z,2.00
2023-12-09T07:52:18.655Z,2.00
2023-12-09T07:54:46.353Z,2.10
2023-12-09T07:57:15.688Z,2.20
2023-12-09T07:59:43.266Z,2.20
2023-12-09T08:02:11.299Z,2.10
2023-12-09T08:04:40.064Z,2.20
2023-12-09T08:07:08.250Z,2.20
2023-12-09T08:09:35.646Z,2.30
2023-12-09T08:12:05.411Z,2.30
2023-12-09T08:14:33.095Z,2.30
2023-12-09T08:17:00.924Z,2.30
2023-12-09T08:19:28.595Z,2.30
2023-12-09T08:21:56.547Z,2.40
2023-12-09T08:24:24.530Z,2.30
2023-12-09T08:26:52.718Z,2.30
2023-12-09T08:29:21.505Z,2.20
2023-12-09T08:31:52.599Z,2.40
2023-12-09T08:34:21.216Z,2.40
2023-12-09T08:36:49.110Z,2.50
2023-12-09T08:39:19.465Z,2.50
2023-12-09T08:41:47.750Z,2.50
2023-12-09T08:44:15.449Z,2.50
2023-12-09T08:46:43.273Z,2.60
2023-12-09T08:49:10.860Z,2.60
2023-12-09T08:51:49.302Z,2.70
2023-12-09T08:54:17.152Z,2.80
2023-12-09T08:56:45.028Z,2.80
2023-12-09T08:59:13.075Z,2.90
2023-12-09T09:01:40.824Z,2.80
2023-12-09T09:04:08.563Z,2.90
2023-12-09T09:06:36.630Z,2.90
2023-12-09T09:09:06.449Z,2.90
2023-12-09T09:11:34.314Z,2.90
2023-12-09T09:14:01.843Z,2.90
2023-12-09T09:16:29.833Z,3.00
2023-12-09T09:18:57.683Z,3.20
2023-12-09T09:21:25.781Z,3.30
2023-12-09T09:23:53.337Z,3.30
2023-12-09T09:26:23.305Z,3.20
2023-12-09T09:28:50.951Z,3.30
2023-12-09T09:31:18.928Z,3.30
2023-12-09T09:33:49.447Z,3.40
2023-12-09T09:36:19.805Z,3.40
2023-12-09T09:38:49.770Z,3.40
2023-12-09T09:41:33.154Z,3.40
2023-12-09T09:44:11.512Z,3.30
2023-12-09T09:46:40.917Z,3.30
2023-12-09T09:49:11.890Z,3.40
2023-12-09T09:51:44.887Z,3.40
2023-12-09T09:54:19.748Z,3.40
2023-12-09T09:56:48.521Z,3.40
2023-12-09T09:59:16.718Z,3.40
2023-12-09T10:01:45.383Z,3.50
2023-12-09T10:04:13.741Z,3.40
2023-12-09T10:06:44.177Z,3.50
2023-12-09T10:09:12.959Z,3.40
2023-12-09T10:11:41.582Z,3.50
2023-12-09T10:14:09.621Z,3.50
2023-12-09T10:16:40.517Z,3.50
2023-12-09T10:19:10.569Z,3.50
2023-12-09T10:21:41.791Z,3.50
2023-12-09T10:24:09.620Z,3.50
2023-12-09T10:26:37.775Z,3.50
2023-12-09T10:29:05.327Z,3.50
2023-12-09T10:31:35.595Z,3.50
2023-12-09T10:34:04.337Z,3.60
2023-12-09T10:36:32.288Z,3.70
2023-12-09T10:39:00.853Z,3.60
2023-12-09T10:41:30.269Z,3.70
2023-12-09T10:43:57.768Z,3.70
2023-12-09T10:46:25.720Z,3.60
2023-12-09T10:48:53.326Z,3.60
2023-12-09T10:51:21.316Z,3.60
2023-12-09T10:53:49.097Z,3.70
2023-12-09T10:56:17.507Z,3.80
2023-12-09T10:58:46.614Z,3.70
2023-12-09T11:01:17.042Z,3.70
2023-12-09T11:03:44.767Z,3.70
2023-12-09T11:06:14.848Z,3.60
2023-12-09T11:08:44.186Z,3.60
2023-12-09T11:11:12.795Z,3.70
2023-12-09T11:13:45.938Z,3.70
2023-12-09T11:16:20.511Z,3.70
2023-12-09T11:18:54.171Z,3.70
2023-12-09T11:21:24.545Z,3.70
2023-12-09T11:23:55.773Z,3.70
2023-12-09T11:26:30.907Z,3.60
2023-12-09T11:29:02.315Z,3.60
2023-12-09T11:31:51.375Z,3.70
2023-12-09T11:34:23.772Z,3.70
2023-12-09T11:36:54.114Z,3.70
2023-12-09T11:39:23.704Z,3.70
2023-12-09T11:41:52.209Z,3.70
2023-12-09T11:44:20.281Z,3.60
2023-12-09T11:46:48.307Z,3.70
2023-12-09T11:49:16.236Z,3.70
2023-12-09T11:51:46.569Z,3.80
2023-12-09T11:54:14.251Z,3.80
2023-12-09T11:56:42.580Z,3.70
2023-12-09T11:59:10.101Z,3.70
2023-12-09T12:01:38.394Z,3.70
2023-12-09T12:04:06.295Z,3.60
2023-12-09T12:06:36.637Z,3.60
2023-12-09T12:09:04.694Z,3.60
2023-12-09T12:11:35.288Z,3.70
2023-12-09T12:14:05.781Z,3.70
2023-12-09T12:16:33.741Z,3.70
2023-12-09T12:19:01.347Z,3.70
2023-12-09T12:21:29.681Z,3.70
2023-12-09T12:23:57.289Z,3.80
2023-12-09T12:26:25.326Z,3.80
2023-12-09T12:28:54.683Z,3.80
2023-12-09T12:31:24.833Z,3.80
2023-12-09T12:33:53.072Z,3.80
2023-12-09T12:36:21.451Z,3.80
2023-12-09T12:38:51.222Z,3.80
2023-12-09T12:41:19.242Z,3.70
2023-12-09T12:43:46.838Z,3.70
2023-12-09T12:46:19.233Z,3.70
2023-12-09T12:48:46.894Z,3.70
2023-12-09T12:51:15.021Z,3.80
2023-12-09T12:53:42.821Z,3.90
2023-12-09T12:56:11.267Z,3.80
2023-12-09T12:58:39.157Z,3.90
2023-12-09T13:01:10.162Z,3.80
2023-12-09T13:03:39.075Z,3.90
2023-12-09T13:06:07.726Z,3.80
2023-12-09T13:08:35.826Z,3.80
2023-12-09T13:11:04.032Z,3.80
2023-12-09T13:13:31.701Z,3.80
2023-12-09T13:15:59.944Z,3.80
2023-12-09T13:18:27.560Z,3.80
2023-12-09T13:20:55.326Z,3.80
2023-12-09T13:23:23.136Z,3.80
2023-12-09T13:25:50.929Z,3.80
2023-12-09T13:28:18.515Z,3.80
2023-12-09T13:30:46.399Z,3.80
2023-12-09T13:33:14.284Z,3.80
2023-12-09T13:35:43.178Z,3.80
2023-12-09T13:38:10.787Z,3.90
2023-12-09T13:40:43.199Z,3.80
2023-12-09T13:43:10.792Z,3.80
2023-12-09T13:45:38.786Z,3.80
2023-12-09T13:48:06.766Z,3.90
2023-12-09T13:50:36.096Z,3.80
2023-12-09T13:53:04.867Z,3.80
2023-12-09T13:55:32.919Z,3.80
2023-12-09T13:58:00.337Z,3.80
2023-12-09T14:00:28.706Z,3.70
2023-12-09T14:02:57.488Z,3.80
2023-12-09T14:05:25.480Z,3.80
2023-12-09T14:07:53.307Z,3.80
2023-12-09T14:10:22.158Z,3.80
2023-12-09T14:12:50.449Z,3.80
2023-12-09T14:15:18.441Z,3.80
2023-12-09T14:17:46.155Z,3.70
2023-12-09T14:20:16.835Z,3.70
2023-12-09T14:22:47.089Z,3.70
2023-12-09T14:25:15.162Z,3.80
2023-12-09T14:27:42.687Z,3.70
2023-12-09T14:30:12.760Z,3.70
2023-12-09T14:32:46.103Z,3.70
2023-12-09T14:35:18.522Z,3.60
2023-12-09T14:37:51.769Z,3.60
2023-12-09T14:40:19.890Z,3.60
2023-12-09T14:42:47.772Z,3.70
2023-12-09T14:45:15.807Z,3.70
2023-12-09T14:47:54.036Z,3.60
2023-12-09T14:50:27.604Z,3.60
2023-12-09T14:52:55.360Z,3.50
2023-12-09T14:55:23.060Z,3.40
2023-12-09T14:57:50.707Z,3.50
2023-12-09T15:00:18.965Z,3.50
2023-12-09T15:02:46.804Z,3.60
2023-12-09T15:05:14.792Z,3.60
2023-12-09T15:07:42.944Z,3.50
2023-12-09T15:10:11.440Z,3.50
2023-12-09T15:12:39.131Z,3.50
2023-12-09T15:15:07.928Z,3.40
2023-12-09T15:17:38.231Z,3.50
2023-12-09T15:20:10.407Z,3.50
2023-12-09T15:22:39.131Z,3.50
2023-12-09T15:25:07.488Z,3.50
2023-12-09T15:27:35.311Z,3.50
2023-12-09T15:30:05.509Z,3.40
2023-12-09T15:32:33.898Z,3.40
2023-12-09T15:35:01.852Z,3.60
2023-12-09T15:37:30.152Z,3.50
2023-12-09T15:39:58.003Z,3.50
2023-12-09T15:42:28.678Z,3.50
2023-12-09T15:44:57.042Z,3.50
2023-12-09T15:47:24.767Z,3.50
2023-12-09T15:49:52.517Z,3.50
2023-12-09T15:52:20.709Z,3.50
2023-12-09T15:54:48.967Z,3.50
2023-12-09T15:57:17.312Z,3.50
2023-12-09T15:59:49.439Z,3.40
2023-12-09T16:02:17.073Z,3.40
2023-12-09T16:04:47.194Z,3.40
2023-12-09T16:07:15.897Z,3.30
2023-12-09T16:09:51.689Z,3.30
2023-12-09T16:12:21.459Z,3.30
2023-12-09T16:14:53.882Z,3.40
2023-12-09T16:17:22.200Z,3.30
2023-12-09T16:19:50.756Z,3.30
2023-12-09T16:22:18.835Z,3.20
2023-12-09T16:24:47.357Z,3.20
2023-12-09T16:27:16.079Z,3.20
2023-12-09T16:29:44.059Z,3.30
2023-12-09T16:32:12.161Z,3.30
2023-12-09T16:34:40.223Z,3.30
2023-12-09T16:37:08.319Z,3.30
2023-12-09T16:39:36.106Z,3.30
2023-12-09T16:42:04.147Z,3.30
2023-12-09T16:44:32.432Z,3.30
2023-12-09T16:47:00.048Z,3.30
2023-12-09T16:49:27.911Z,3.30
2023-12-09T16:51:55.484Z,3.40
2023-12-09T16:54:24.572Z,3.40
2023-12-09T16:56:52.502Z,3.40
2023-12-09T16:59:20.484Z,3.40
2023-12-09T17:01:48.302Z,3.40
2023-12-09T17:04:16.541Z,3.30
2023-12-09T17:06:44.825Z,3.30
2023-12-09T17:09:12.915Z,3.30
2023-12-09T17:11:40.633Z,3.30
2023-12-09T17:14:10.399Z,3.20
2023-12-09T17:16:38.437Z,3.30
2023-12-09T17:19:07.153Z,3.40
2023-12-09T17:21:34.822Z,3.40
2023-12-09T17:24:02.752Z,3.40
2023-12-09T17:26:30.596Z,3.40
2023-12-09T17:28:58.963Z,3.40
2023-12-09T17:31:26.467Z,3.40
2023-12-09T17:33:54.869Z,3.40
2023-12-09T17:36:27.268Z,3.40
2023-12-09T17:38:55.738Z,3.40
2023-12-09T17:41:23.899Z,3.30
2023-12-09T17:43:51.819Z,3.40
2023-12-09T17:46:20.952Z,3.40
2023-12-09T17:48:49.576Z,3.30
2023-12-09T17:51:17.476Z,3.30
2023-12-09T17:53:45.320Z,3.30
2023-12-09T17:56:13.089Z,3.30
2023-12-09T17:58:43.316Z,3.30
2023-12-09T18:01:11.283Z,3.30
2023-12-09T18:03:41.202Z,3.30
2023-12-09T18:06:09.337Z,3.30
2023-12-09T18:08:37.966Z,3.30
2023-12-09T18:11:05.880Z,3.30
2023-12-09T18:13:33.810Z,3.30
2023-12-09T18:16:01.484Z,3.30
2023-12-09T18:18:29.750Z,3.30
2023-12-09T18:20:57.233Z,3.30
2023-12-09T18:23:25.142Z,3.30
2023-12-09T18:25:53.468Z,3.20
2023-12-09T18:28:21.247Z,3.20
2023-12-09T18:30:49.278Z,3.30
2023-12-09T18:33:17.232Z,3.20
2023-12-09T18:35:45.514Z,3.20
2023-12-09T18:38:13.415Z,3.30
2023-12-09T18:40:41.187Z,3.20
2023-12-09T18:43:10.335Z,3.30
2023-12-09T18:45:38.065Z,3.30
2023-12-09T18:48:06.313Z,3.30
2023-12-09T18:50:34.300Z,3.30
2023-12-09T18:53:02.248Z,3.40
2023-12-09T18:55:29.876Z,3.30
2023-12-09T18:57:57.865Z,3.30
2023-12-09T19:00:25.332Z,3.30
2023-12-09T19:02:55.855Z,3.30
2023-12-09T19:05:23.419Z,3.20
2023-12-09T19:07:51.181Z,3.30
2023-12-09T19:10:18.685Z,3.30
2023-12-09T19:12:46.702Z,3.30
2023-12-09T19:15:14.711Z,3.20
2023-12-09T19:17:43.066Z,3.30
2023-12-09T19:20:11.395Z,3.30
2023-12-09T19:22:39.508Z,3.20
2023-12-09T19:25:07.499Z,3.20
2023-12-09T19:27:35.418Z,3.20
2023-12-09T19:30:03.090Z,3.20
2023-12-09T19:32:31.358Z,3.10
2023-12-09T19:35:00.265Z,3.10
2023-12-09T19:37:28.337Z,3.10
2023-12-09T19:39:57.247Z,3.00
2023-12-09T19:42:25.628Z,3.10
2023-12-09T19:44:53.357Z,3.10
2023-12-09T19:47:21.303Z,3.00
2023-12-09T19:49:49.373Z,3.00
2023-12-09T19:52:17.178Z,2.90
2023-12-09T19:54:44.795Z,2.90
2023-12-09T19:57:12.735Z,2.90
2023-12-09T19:59:43.319Z,2.90
2023-12-09T20:02:11.223Z,2.90
2023-12-09T20:04:39.112Z,2.90
2023-12-09T20:07:06.992Z,2.90
2023-12-09T20:09:35.259Z,3.00
2023-12-09T20:12:07.488Z,3.00
2023-12-09T20:14:35.374Z,3.00
2023-12-09T20:17:05.141Z,3.00
2023-12-09T20:19:33.042Z,3.00
2023-12-09T20:22:01.296Z,3.00
2023-12-09T20:24:29.246Z,2.90
2023-12-09T20:26:57.001Z,2.90
2023-12-09T20:29:24.626Z,2.90
2023-12-09T20:31:52.604Z,2.90
2023-12-09T20:34:20.717Z,2.80
2023-12-09T20:36:50.096Z,2.80
2023-12-09T20:39:17.869Z,2.70
2023-12-09T20:41:45.708Z,2.50
2023-12-09T20:44:13.367Z,2.40
2023-12-09T20:46:43.628Z,2.40
2023-12-09T20:49:11.538Z,2.40
2023-12-09T20:51:39.721Z,2.30
2023-12-09T20:54:07.364Z,2.20
2023-12-09T20:56:35.772Z,2.20
2023-12-09T20:59:05.374Z,2.10
2023-12-09T21:01:33.457Z,2.10
2023-12-09T21:04:01.182Z,2.10
2023-12-09T21:06:29.322Z,2.10
2023-12-09T21:08:57.191Z,2.10
2023-12-09T21:11:25.140Z,2.10
2023-12-09T21:13:53.768Z,2.10
2023-12-09T21:16:21.589Z,2.00
2023-12-09T21:18:49.027Z,1.90
2023-12-09T21:21:17.692Z,1.80
2023-12-09T21:23:45.244Z,1.60
2023-12-09T21:26:13.201Z,1.60
2023-12-09T21:28:40.738Z,1.50
2023-12-09T21:31:13.749Z,1.40
2023-12-09T21:33:41.631Z,1.30
2023-12-09T21:36:14.092Z,1.30
2023-12-09T21:38:42.710Z,1.30
2023-12-09T21:41:22.440Z,1.30
2023-12-09T21:43:50.812Z,1.20
2023-12-09T21:46:23.127Z,1.20
2023-12-09T21:48:52.286Z,1.10
2023-12-09T21:51:22.039Z,1.10
2023-12-09T21:53:49.775Z,1.00
2023-12-09T21:56:29.314Z,1.00
2023-12-09T21:58:57.611Z,1.00
2023-12-09T22:01:25.634Z,1.00
2023-12-09T22:03:53.488Z,1.00
2023-12-09T22:06:21.288Z,1.00
2023-12-09T22:08:49.001Z,1.00
2023-12-09T22:11:18.592Z,1.00
2023-12-09T22:13:46.276Z,0.90
2023-12-09T22:16:20.197Z,1.00
2023-12-09T22:18:49.500Z,0.90
2023-12-09T22:21:17.586Z,0.90
2023-12-09T22:23:45.208Z,1.00
2023-12-09T22:26:13.222Z,1.00
2023-12-09T22:28:41.897Z,1.00
2023-12-09T22:31:10.686Z,1.00
2023-12-09T22:33:38.526Z,1.00
2023-12-09T22:36:09.625Z,1.00
2023-12-09T22:38:37.420Z,0.90
2023-12-09T22:41:05.874Z,0.90
2023-12-09T22:43:33.508Z,0.80
2023-12-09T22:46:01.309Z,0.80
2023-12-09T22:48:29.026Z,0.80
2023-12-09T22:50:57.406Z,0.80
2023-12-09T22:53:24.780Z,0.80
2023-12-09T22:55:52.820Z,0.80
2023-12-09T22:58:39.695Z,0.80
2023-12-09T23:01:09.996Z,0.80
2023-12-09T23:03:37.703Z,0.80
2023-12-09T23:06:06.055Z,0.70
2023-12-09T23:08:33.842Z,0.80
2023-12-09T23:11:06.561Z,1.00
2023-12-09T23:13:34.150Z,1.10
2023-12-09T23:16:02.168Z,1.30
2023-12-09T23:18:30.244Z,1.50
2023-12-09T23:20:58.527Z,1.60
2023-12-09T23:23:25.926Z,1.60
2023-12-09T23:25:54.868Z,1.80
2023-12-09T23:28:23.526Z,1.80
2023-12-09T23:30:51.204Z,1.90
2023-12-09T23:33:19.065Z,2.00
2023-12-09T23:35:47.135Z,2.00
2023-12-09T23:38:14.722Z,2.20
2023-12-09T23:40:43.316Z,2.20
2023-12-09T23:43:10.989Z,2.20
2023-12-09T23:45:38.911Z,2.20
2023-12-09T23:48:07.562Z,2.20
2023-12-09T23:50:35.777Z,2.30
2023-12-09T23:53:03.239Z,2.30
2023-12-09T23:55:31.048Z,2.30
2023-12-09T23:57:58.522Z,2.40
